Time;durP1;ratioP1;P1;durP2;ratioP2;P2;SDS_P1;SDS_P2;PMS_P1;PMS_P2;Temp;Humidity;BMP_temperature;BMP_pressure;BME280_temperature;BME280_humidity;BME280_pressure;Samples;Min_cycle;Max_cycle;Signal;HPM_P1;HPM_P2
2022/01/26 00:06:42;;;;;;;96.35;31.05;;;3.20;99.90;;;;;;5054059;28;20508;-71
2022/01/26 00:09:09;;;;;;;89.20;30.33;;;3.30;99.90;;;;;;5007089;28;85257;-71
2022/01/26 00:11:36;;;;;;;94.85;31.15;;;3.20;99.90;;;;;;5060371;22;20059;-69
2022/01/26 00:14:09;;;;;;;91.38;30.75;;;3.20;99.90;;;;;;5021883;28;221055;-68
2022/01/26 00:16:40;;;;;;;93.88;31.25;;;3.20;99.90;;;;;;5047786;28;20466;-69
2022/01/26 00:19:09;;;;;;;94.95;31.23;;;3.20;99.90;;;;;;5031816;28;126133;-68
2022/01/26 00:21:41;;;;;;;96.88;31.85;;;3.20;99.90;;;;;;5068014;28;20424;-69
2022/01/26 00:24:23;;;;;;;95.57;31.35;;;3.20;99.90;;;;;;5003910;28;173664;-69
2022/01/26 00:29:24;;;;;;;95.20;31.85;;;3.20;99.90;;;;;;4987181;28;152417;-68
2022/01/26 00:40:25;;;;;;;99.85;32.72;;;3.10;99.90;;;;;;4975962;28;238563;-69
2022/01/26 00:42:54;;;;;;;102.60;32.05;;;3.10;99.90;;;;;;5017969;28;20052;-68
2022/01/26 00:45:25;;;;;;;97.18;32.30;;;3.10;99.90;;;;;;5026391;28;162496;-69
2022/01/26 00:47:51;;;;;;;102.38;34.50;;;3.10;99.90;;;;;;5033739;28;20072;-69
2022/01/26 00:50:18;;;;;;;98.78;33.50;;;3.10;99.90;;;;;;5006827;28;129711;-70
2022/01/26 00:52:51;;;;;;;101.88;33.55;;;3.10;99.90;;;;;;5034866;28;20428;-69
2022/01/26 00:55:19;;;;;;;102.43;34.80;;;3.10;99.90;;;;;;5035490;28;30196;-69
2022/01/26 00:57:46;;;;;;;102.13;33.08;;;3.10;99.90;;;;;;5010942;28;20436;-70
2022/01/26 01:00:17;;;;;;;103.88;35.88;;;3.10;99.90;;;;;;5029059;28;126865;-69
2022/01/26 01:02:44;;;;;;;95.72;33.63;;;3.10;99.90;;;;;;5035723;28;20160;-69
2022/01/26 01:05:18;;;;;;;101.40;34.70;;;3.00;99.90;;;;;;4999934;28;143511;-69
2022/01/26 01:07:47;;;;;;;102.85;34.38;;;3.10;99.90;;;;;;5020871;28;20046;-69
2022/01/26 01:10:16;;;;;;;106.25;35.15;;;3.00;99.90;;;;;;5016640;28;65626;-69
2022/01/26 01:12:44;;;;;;;100.00;34.40;;;3.10;99.90;;;;;;5039062;28;20050;-69
2022/01/26 01:15:12;;;;;;;97.90;36.33;;;3.00;99.90;;;;;;5026963;28;91484;-69
2022/01/26 01:17:44;;;;;;;105.38;33.95;;;3.00;99.90;;;;;;5016118;28;20040;-69
2022/01/26 01:30:41;;;;;;;99.30;34.35;;;3.00;99.90;;;;;;5019972;28;139137;-69
2022/01/26 01:33:15;;;;;;;101.13;34.70;;;3.00;99.90;;;;;;5020616;28;20060;-69
2022/01/26 01:35:43;;;;;;;92.32;32.63;;;3.00;99.90;;;;;;5021962;28;125224;-69
2022/01/26 01:38:16;;;;;;;97.18;34.17;;;2.90;99.90;;;;;;5022677;28;20055;-69
2022/01/26 01:40:45;;;;;;;106.75;36.33;;;2.90;99.90;;;;;;5023811;28;32395;-69
2022/01/26 01:43:13;;;;;;;108.32;35.50;;;3.00;99.90;;;;;;5016618;28;20041;-69
2022/01/26 01:45:48;;;;;;;96.95;32.92;;;3.00;99.90;;;;;;5035487;28;99789;-69
2022/01/26 01:48:19;;;;;;;101.47;33.85;;;2.90;99.90;;;;;;5029465;28;20793;-68
2022/01/26 01:50:47;;;;;;;99.70;34.10;;;2.90;99.90;;;;;;5039096;28;94765;-69
2022/01/26 01:53:16;;;;;;;110.93;35.00;;;2.90;99.90;;;;;;5038302;28;20307;-69
2022/01/26 01:55:51;;;;;;;99.68;32.80;;;2.90;99.90;;;;;;5033510;28;116823;-69
2022/01/26 01:58:18;;;;;;;90.45;31.02;;;2.90;99.90;;;;;;5012123;28;20444;-69
2022/01/26 02:00:45;;;;;;;102.05;32.80;;;2.90;99.90;;;;;;5004783;28;85814;-69
2022/01/26 02:03:11;;;;;;;98.25;32.17;;;2.90;99.90;;;;;;5037910;28;20517;-69
2022/01/26 02:05:37;;;;;;;105.22;31.40;;;2.90;99.90;;;;;;5019061;28;191955;-69
2022/01/26 02:08:04;;;;;;;108.65;35.33;;;2.90;99.90;;;;;;5019895;28;20044;-68
2022/01/26 02:10:31;;;;;;;104.07;33.55;;;2.90;99.90;;;;;;5029035;28;188518;-68
2022/01/26 02:13:01;;;;;;;103.63;34.10;;;2.90;99.90;;;;;;5039363;28;20037;-69
2022/01/26 02:15:40;;;;;;;101.25;33.33;;;2.90;99.90;;;;;;5034025;28;231528;-69
2022/01/26 02:55:43;;;;;;;97.03;30.48;;;2.80;99.90;;;;;;5018653;28;90374;-69
2022/01/26 03:01:22;;;;;;;99.50;31.10;;;2.80;99.90;;;;;;5021305;28;244425;-69
2022/01/26 03:03:52;;;;;;;95.40;29.95;;;2.80;99.90;;;;;;4987736;28;187710;-68
2022/01/26 03:06:25;;;;;;;103.57;32.42;;;2.80;99.90;;;;;;5033948;28;20060;-69
2022/01/26 03:08:58;;;;;;;98.63;31.35;;;2.80;99.90;;;;;;4997091;28;81705;-68
2022/01/26 03:11:28;;;;;;;100.55;29.63;;;2.80;99.90;;;;;;5036425;28;20065;-69
2022/01/26 03:14:03;;;;;;;100.85;32.90;;;2.80;99.90;;;;;;5013301;28;41407;-68
2022/01/26 03:16:35;;;;;;;98.13;33.35;;;2.80;99.90;;;;;;5044661;28;20056;-69
2022/01/26 03:19:16;;;;;;;93.97;30.30;;;2.80;99.90;;;;;;4996326;28;155938;-69
2022/01/26 03:22:03;;;;;;;103.83;34.40;;;2.70;99.90;;;;;;5048167;28;20059;-69
2022/01/26 03:30:05;;;;;;;101.82;32.63;;;2.80;99.90;;;;;;5004755;28;244222;-69
2022/01/26 03:35:27;;;;;;;100.13;31.77;;;2.80;99.90;;;;;;5013649;28;129725;-69
2022/01/26 03:37:55;;;;;;;97.68;32.22;;;2.80;99.90;;;;;;5012718;28;20358;-68
2022/01/26 03:40:30;;;;;;;96.00;30.77;;;2.80;99.90;;;;;;5007077;28;199749;-69
2022/01/26 03:43:00;;;;;;;95.32;30.42;;;2.80;99.90;;;;;;5011924;28;20049;-69
2022/01/26 03:45:26;;;;;;;99.88;31.42;;;2.80;99.90;;;;;;5029172;28;207254;-69
2022/01/26 03:47:56;;;;;;;97.25;30.33;;;2.80;99.90;;;;;;5018181;28;20051;-69
2022/01/26 03:50:23;;;;;;;86.88;29.77;;;2.80;99.90;;;;;;5027353;28;184634;-69
2022/01/26 03:52:50;;;;;;;92.32;30.80;;;2.80;99.90;;;;;;5031913;28;20241;-69
2022/01/26 03:55:16;;;;;;;93.80;31.17;;;2.80;99.90;;;;;;5016882;28;105726;-69
2022/01/26 03:57:42;;;;;;;95.05;30.70;;;2.80;99.90;;;;;;5017326;28;20057;-69
2022/01/26 04:00:09;;;;;;;99.65;32.13;;;2.80;99.90;;;;;;5033357;28;131681;-69
2022/01/26 04:02:36;;;;;;;93.55;32.85;;;2.90;99.90;;;;;;5033383;28;20056;-69
2022/01/26 04:05:07;;;;;;;87.82;31.38;;;2.90;99.90;;;;;;5001629;28;205896;-69
2022/01/26 04:07:33;;;;;;;91.60;29.67;;;2.80;99.90;;;;;;5003231;28;20052;-69
2022/01/26 04:10:10;;;;;;;92.38;30.67;;;2.80;99.90;;;;;;5023388;28;104774;-69
2022/01/26 04:12:38;;;;;;;93.28;29.83;;;2.80;99.90;;;;;;5037997;28;20500;-69
2022/01/26 04:15:13;;;;;;;89.22;30.40;;;2.80;99.90;;;;;;5015738;28;50033;-69
2022/01/26 04:17:40;;;;;;;93.10;31.02;;;2.80;99.90;;;;;;5013247;28;20055;-67
2022/01/26 04:20:06;;;;;;;97.05;31.48;;;2.80;99.90;;;;;;5017549;28;54864;-69
2022/01/26 04:22:47;;;;;;;90.13;30.33;;;2.80;99.90;;;;;;5043103;28;20044;-68
2022/01/26 04:25:19;;;;;;;92.22;30.35;;;2.80;99.90;;;;;;5023952;28;96255;-68
2022/01/26 04:27:48;;;;;;;94.22;30.48;;;2.80;99.90;;;;;;5014246;28;20041;-69
2022/01/26 04:30:14;;;;;;;89.03;30.15;;;2.80;99.90;;;;;;4991418;28;225016;-69
2022/01/26 04:32:40;;;;;;;85.78;29.83;;;2.80;99.90;;;;;;5021159;28;20053;-69
2022/01/26 04:35:09;;;;;;;85.20;29.13;;;2.80;99.90;;;;;;5028160;28;175575;-69
2022/01/26 04:40:07;;;;;;;95.45;31.63;;;2.80;99.90;;;;;;5031360;28;159002;-69
2022/01/26 04:42:54;;;;;;;90.88;28.55;;;2.80;99.90;;;;;;5016039;28;20053;-69
2022/01/26 04:45:20;;;;;;;89.90;30.08;;;2.80;99.90;;;;;;5009499;28;122263;-68
2022/01/26 04:47:46;;;;;;;90.38;30.70;;;2.80;99.90;;;;;;5035325;28;20056;-68
2022/01/26 04:50:12;;;;;;;91.97;30.40;;;2.80;99.90;;;;;;5018757;28;126643;-69
2022/01/26 04:52:39;;;;;;;83.18;28.85;;;2.80;99.90;;;;;;5017272;28;20057;-69
2022/01/26 04:55:05;;;;;;;84.53;28.33;;;2.80;99.90;;;;;;5037413;28;65726;-69
2022/01/26 04:57:31;;;;;;;83.47;28.38;;;2.70;99.90;;;;;;5034914;28;20049;-69
2022/01/26 04:59:58;;;;;;;88.00;30.02;;;2.70;99.90;;;;;;5013187;28;31896;-69
2022/01/26 05:02:24;;;;;;;83.75;28.33;;;2.70;99.90;;;;;;5043263;28;20083;-67
2022/01/26 05:04:50;;;;;;;80.75;26.83;;;2.70;99.90;;;;;;5023201;28;114929;-69
2022/01/26 05:07:16;;;;;;;81.35;28.27;;;2.70;99.90;;;;;;5049165;28;20060;-69
2022/01/26 05:09:42;;;;;;;78.60;27.45;;;2.70;99.90;;;;;;5008407;28;33547;-69
2022/01/26 05:12:09;;;;;;;80.78;27.88;;;2.70;99.90;;;;;;5049668;28;20418;-69
2022/01/26 05:14:38;;;;;;;79.68;27.55;;;2.70;99.90;;;;;;5001428;28;182259;-69
2022/01/26 05:17:05;;;;;;;80.03;28.27;;;2.70;99.90;;;;;;5062211;28;20282;-70
2022/01/26 05:19:32;;;;;;;82.05;27.67;;;2.60;99.90;;;;;;5008964;28;55182;-69
2022/01/26 05:21:58;;;;;;;75.90;26.30;;;2.70;99.90;;;;;;5053545;28;20063;-69
2022/01/26 05:24:24;;;;;;;79.20;27.65;;;2.70;99.90;;;;;;4999926;28;161920;-69
2022/01/26 05:26:50;;;;;;;76.05;26.50;;;2.70;99.90;;;;;;5056272;28;20051;-69
2022/01/26 05:29:16;;;;;;;80.78;26.15;;;2.70;99.90;;;;;;4993962;28;232305;-69
2022/01/26 05:31:43;;;;;;;81.78;28.05;;;2.70;99.90;;;;;;5057898;28;20053;-68
2022/01/26 05:34:09;;;;;;;72.95;24.35;;;2.70;99.90;;;;;;5013268;28;29561;-69
2022/01/26 05:36:35;;;;;;;78.97;26.83;;;2.70;99.90;;;;;;5057832;28;20067;-69
2022/01/26 05:39:03;;;;;;;70.70;25.00;;;2.70;99.90;;;;;;5015316;28;107310;-69
2022/01/26 05:41:29;;;;;;;75.30;26.00;;;2.70;99.90;;;;;;5041371;28;20053;-70
2022/01/26 05:43:55;;;;;;;69.93;25.40;;;2.70;99.90;;;;;;5021373;28;89928;-68
2022/01/26 05:46:38;;;;;;;68.07;24.23;;;2.70;99.90;;;;;;5043463;28;20056;-69
2022/01/26 05:49:04;;;;;;;70.85;24.13;;;2.60;99.90;;;;;;4984860;28;97684;-68
2022/01/26 05:51:33;;;;;;;66.80;25.63;;;2.60;99.90;;;;;;5028262;28;20055;-69
2022/01/26 05:54:04;;;;;;;72.95;24.98;;;2.60;99.90;;;;;;4974459;28;32173;-69
2022/01/26 05:56:30;;;;;;;71.20;24.38;;;2.60;99.90;;;;;;5056865;28;20406;-70
2022/01/26 05:58:57;;;;;;;67.65;24.35;;;2.60;99.90;;;;;;5002476;28;227869;-69
2022/01/26 06:01:24;;;;;;;74.40;26.30;;;2.60;99.90;;;;;;5030351;28;20064;-69
2022/01/26 06:03:50;;;;;;;72.90;23.73;;;2.60;99.90;;;;;;5011472;28;121309;-69
2022/01/26 06:06:17;;;;;;;74.22;25.65;;;2.60;99.90;;;;;;5021176;28;20049;-70
2022/01/26 06:08:43;;;;;;;74.03;24.40;;;2.60;99.90;;;;;;5003599;28;66928;-69
2022/01/26 06:11:15;;;;;;;70.80;24.10;;;2.60;99.90;;;;;;5040188;22;20044;-86
2022/01/26 06:13:44;;;;;;;69.93;23.50;;;2.60;99.90;;;;;;4971598;28;164006;-86
2022/01/26 06:16:11;;;;;;;69.65;24.60;;;2.70;99.90;;;;;;4970471;28;20069;-83
2022/01/26 06:18:41;;;;;;;65.05;23.55;;;2.60;99.90;;;;;;4969704;28;20046;-88
2022/01/26 06:21:16;;;;;;;63.58;22.75;;;2.60;99.90;;;;;;4964383;28;20050;-88
2022/01/26 06:23:50;;;;;;;65.53;24.27;;;2.60;99.90;;;;;;4936322;28;281240;-85
2022/01/26 06:26:16;;;;;;;62.17;22.33;;;2.60;99.90;;;;;;4958699;28;20058;-85
2022/01/26 06:28:51;;;;;;;68.82;23.52;;;2.60;99.90;;;;;;4921870;28;132467;-86
2022/01/26 06:31:18;;;;;;;68.60;24.13;;;2.60;99.90;;;;;;4954226;28;20050;-87
2022/01/26 06:33:50;;;;;;;64.38;23.63;;;2.60;99.90;;;;;;4922983;28;50716;-88
2022/01/26 06:39:54;;;;;;;72.50;23.58;;;2.50;99.90;;;;;;4981263;28;150116;-87
2022/01/26 06:42:37;;;;;;;65.10;22.65;;;2.60;99.90;;;;;;4971778;28;20050;-89
2022/01/26 06:45:18;;;;;;;65.03;22.27;;;2.70;99.90;;;;;;4949505;28;112448;-85
2022/01/26 06:51:18;;;;;;;65.95;22.67;;;2.60;99.90;;;;;;4987601;28;20502;-87
2022/01/26 06:53:44;;;;;;;72.82;24.15;;;2.60;99.90;;;;;;4991166;28;273083;-87
2022/01/26 06:56:18;;;;;;;70.38;24.88;;;2.70;99.90;;;;;;4999649;28;22139;-86
2022/01/26 06:58:44;;;;;;;66.62;23.60;;;2.70;99.90;;;;;;4870576;28;3035409;-86
2022/01/26 07:01:13;;;;;;;60.47;23.70;;;2.70;99.90;;;;;;5009412;28;20452;-85
2022/01/26 07:03:42;;;;;;;68.43;25.95;;;2.60;99.90;;;;;;5001228;28;50047;-86
2022/01/26 07:06:08;;;;;;;63.95;23.67;;;2.70;99.90;;;;;;4987904;28;20133;-87
2022/01/26 07:08:37;;;;;;;76.88;26.05;;;2.60;99.90;;;;;;5008231;28;20048;-86
2022/01/26 07:11:04;;;;;;;71.10;25.52;;;2.70;99.90;;;;;;5006244;28;20053;-86
2022/01/26 07:13:30;;;;;;;72.03;26.55;;;2.70;99.90;;;;;;5003647;28;20060;-85
2022/01/26 07:21:46;;;;;;;75.72;28.55;;;2.70;99.90;;;;;;4957452;28;20047;-84
2022/01/26 07:24:12;;;;;;;74.85;28.48;;;2.70;99.90;;;;;;4898611;28;196471;-85
2022/01/26 07:26:39;;;;;;;73.35;27.65;;;2.70;99.90;;;;;;4924676;28;20046;-85
2022/01/26 07:29:12;;;;;;;80.68;28.67;;;2.70;99.90;;;;;;4941614;28;20049;-85
2022/01/26 07:31:47;;;;;;;76.15;28.30;;;2.70;99.90;;;;;;4932854;28;20046;-87
2022/01/26 07:34:19;;;;;;;76.50;29.15;;;2.70;99.90;;;;;;4930604;28;29196;-87
2022/01/26 07:36:48;;;;;;;77.50;29.60;;;2.70;99.90;;;;;;4956703;28;20066;-85
2022/01/26 07:39:43;;;;;;;72.85;28.52;;;2.70;99.90;;;;;;4943223;28;105033;-86
2022/01/26 07:42:16;;;;;;;78.28;29.00;;;2.70;99.90;;;;;;4942690;28;20055;-87
2022/01/26 07:44:43;;;;;;;80.50;30.42;;;2.70;99.90;;;;;;4908920;28;197011;-86
2022/01/26 07:47:11;;;;;;;84.20;31.35;;;2.80;99.90;;;;;;4944241;28;20046;-86
2022/01/26 07:49:40;;;;;;;91.53;34.85;;;2.80;99.90;;;;;;4928207;28;275270;-87
2022/01/26 07:52:07;;;;;;;92.78;34.58;;;2.80;99.90;;;;;;4971966;28;20060;-87
2022/01/26 07:54:36;;;;;;;90.47;33.50;;;2.80;99.90;;;;;;4971831;28;146567;-87
2022/01/26 07:57:09;;;;;;;86.00;33.13;;;2.80;99.90;;;;;;5004463;28;20045;-87
2022/01/26 07:59:35;;;;;;;103.22;36.42;;;2.80;99.90;;;;;;4872654;28;3013899;-86
2022/01/26 08:02:05;;;;;;;91.85;36.20;;;2.90;99.90;;;;;;5034200;28;20505;-87
2022/01/26 08:04:31;;;;;;;93.22;36.95;;;2.80;99.90;;;;;;4874721;28;3019083;-87
2022/01/26 08:07:00;;;;;;;101.80;39.28;;;2.90;99.90;;;;;;5033397;28;20133;-87
2022/01/26 08:09:43;;;;;;;98.78;37.55;;;2.80;99.90;;;;;;5000134;28;129649;-87
2022/01/26 08:12:16;;;;;;;103.03;36.67;;;2.90;99.90;;;;;;5043969;28;20060;-87
2022/01/26 08:14:45;;;;;;;99.35;36.38;;;2.90;99.90;;;;;;4999031;28;160658;-87
2022/01/26 08:17:15;;;;;;;102.22;36.72;;;2.90;99.90;;;;;;5008264;28;20060;-87
2022/01/26 08:19:54;;;;;;;;;;;;;;;;;;;;;
2022/01/26 08:22:22;;;;;;;103.90;41.25;;;3.00;99.90;;;;;;5029211;28;20053;-87
2022/01/26 08:24:50;;;;;;;112.75;42.42;;;2.90;99.90;;;;;;4953672;28;100116;-87
2022/01/26 08:27:24;;;;;;;120.50;42.33;;;3.00;99.90;;;;;;5027633;28;20053;-87
2022/01/26 08:30:02;;;;;;;115.88;42.13;;;3.00;99.90;;;;;;4971763;28;155543;-86
2022/01/26 08:32:31;;;;;;;113.65;39.15;;;3.00;99.90;;;;;;4996612;28;20247;-87
2022/01/26 08:35:04;;;;;;;118.72;44.35;;;3.10;99.90;;;;;;4994738;28;94051;-87
2022/01/26 08:37:36;;;;;;;123.88;45.25;;;3.10;99.90;;;;;;5038805;28;20049;-87
2022/01/26 08:40:11;;;;;;;115.53;44.53;;;3.10;99.90;;;;;;5028452;28;145489;-86
2022/01/26 08:42:42;;;;;;;114.75;42.80;;;3.10;99.90;;;;;;4999129;28;20370;-86
2022/01/26 08:45:16;;;;;;;120.30;44.30;;;3.10;99.90;;;;;;5014311;28;222750;-87
2022/01/26 08:47:51;;;;;;;120.53;45.35;;;3.20;99.90;;;;;;5006838;28;20201;-87
2022/01/26 08:50:28;;;;;;;119.38;45.65;;;3.10;99.90;;;;;;5011541;28;91959;-87
2022/01/26 08:52:55;;;;;;;119.22;44.38;;;3.20;99.90;;;;;;5013484;28;20041;-87
2022/01/26 08:55:24;;;;;;;121.03;44.08;;;3.20;99.90;;;;;;5030431;28;30124;-86
2022/01/26 08:57:53;;;;;;;127.57;45.92;;;3.20;99.90;;;;;;5017797;28;20041;-87
2022/01/26 09:00:21;;;;;;;118.43;44.03;;;3.20;99.90;;;;;;5016653;28;191854;-86
2022/01/26 09:02:50;;;;;;;130.13;45.67;;;3.20;99.90;;;;;;4993769;28;20526;-87
2022/01/26 09:05:19;;;;;;;112.75;42.38;;;3.20;99.90;;;;;;4975960;28;250942;-86
2022/01/26 09:07:49;;;;;;;124.60;46.35;;;3.30;99.90;;;;;;5014784;28;20046;-88
2022/01/26 09:10:16;;;;;;;123.35;46.13;;;3.30;99.90;;;;;;5021370;28;156836;-87
2022/01/26 09:12:44;;;;;;;123.43;44.65;;;3.30;99.90;;;;;;4997028;28;20058;-87
2022/01/26 09:15:11;;;;;;;122.32;46.90;;;3.30;99.90;;;;;;5008064;28;260885;-87
2022/01/26 09:17:42;;;;;;;123.22;46.33;;;3.40;99.90;;;;;;5012155;28;20053;-87
2022/01/26 09:20:11;;;;;;;118.28;45.38;;;3.40;99.90;;;;;;4991844;28;172713;-86
2022/01/26 09:22:41;;;;;;;122.53;47.05;;;3.40;99.90;;;;;;4996447;28;20068;-86
2022/01/26 09:25:08;;;;;;;122.28;46.88;;;3.40;99.90;;;;;;4888496;28;3009432;-86
2022/01/26 09:27:41;;;;;;;113.63;44.85;;;3.40;99.90;;;;;;5007114;28;20068;-86
2022/01/26 09:30:11;;;;;;;113.22;44.67;;;3.50;99.90;;;;;;4999892;28;20045;-87
2022/01/26 09:32:38;;;;;;;114.03;45.33;;;3.50;99.90;;;;;;5009703;28;20056;-87
2022/01/26 09:35:10;;;;;;;117.47;42.63;;;3.60;99.90;;;;;;5018521;28;81402;-87
2022/01/26 09:37:43;;;;;;;108.38;43.00;;;3.60;99.90;;;;;;5015464;28;20057;-87
2022/01/26 09:40:12;;;;;;;109.80;40.83;;;3.60;99.90;;;;;;5028160;28;216262;-87
2022/01/26 09:42:46;;;;;;;106.15;43.00;;;3.60;99.90;;;;;;5008496;28;20045;-86
2022/01/26 09:45:12;;;;;;;102.60;43.22;;;3.60;99.90;;;;;;4990509;28;238087;-86
2022/01/26 09:47:39;;;;;;;106.10;40.40;;;3.70;99.90;;;;;;5000315;28;20048;-87
2022/01/26 09:50:08;;;;;;;107.50;44.00;;;3.70;99.90;;;;;;5010584;28;261164;-86
2022/01/26 09:52:40;;;;;;;112.00;43.83;;;3.70;99.90;;;;;;4993817;28;20049;-86
2022/01/26 09:55:09;;;;;;;109.97;44.63;;;3.80;99.90;;;;;;5015864;28;266610;-87
2022/01/26 09:57:41;;;;;;;121.90;47.45;;;3.70;99.90;;;;;;5011503;28;20056;-87
2022/01/26 10:00:09;;;;;;;112.03;45.42;;;3.70;99.90;;;;;;5002136;28;25353;-87
2022/01/26 10:02:36;;;;;;;116.38;45.75;;;3.70;99.90;;;;;;4993256;28;20060;-87
2022/01/26 10:05:08;;;;;;;118.65;46.63;;;3.80;99.90;;;;;;5012354;28;160971;-87
2022/01/26 10:10:33;;;;;;;118.20;46.85;;;3.80;99.90;;;;;;5013566;28;194813;-87
2022/01/26 10:18:42;;;;;;;110.30;45.08;;;3.80;99.90;;;;;;5012331;28;183916;-86
2022/01/26 10:21:09;;;;;;;112.28;44.88;;;3.80;99.90;;;;;;5011587;28;20049;-86
2022/01/26 10:23:44;;;;;;;110.95;44.55;;;3.80;99.90;;;;;;4989249;28;20057;-86
2022/01/26 10:26:19;;;;;;;111.25;45.28;;;3.80;99.90;;;;;;5021686;28;20099;-87
2022/01/26 10:28:51;;;;;;;116.55;45.03;;;3.80;99.90;;;;;;5013733;28;208109;-88
2022/01/26 10:31:58;;;;;;;104.18;42.25;;;3.90;99.90;;;;;;5015952;28;20053;-88
2022/01/26 10:41:00;;;;;;;96.80;38.27;;;4.00;99.90;;;;;;5004582;28;265418;-87
2022/01/26 10:43:50;;;;;;;84.30;37.90;;;4.00;99.90;;;;;;4991795;28;20058;-88
2022/01/26 10:46:34;;;;;;;97.25;41.33;;;4.00;99.90;;;;;;4998180;28;20097;-87
2022/01/26 10:54:36;;;;;;;;;;;4.20;99.90;;;;;;4991746;28;199978;-87
2022/01/26 10:57:03;;;;;;;84.15;36.67;;;4.10;99.90;;;;;;5012552;28;19920;-87
2022/01/26 10:59:34;;;;;;;88.80;38.30;;;4.10;99.90;;;;;;4982085;28;75407;-87
2022/01/26 11:02:05;;;;;;;96.23;40.07;;;4.20;99.90;;;;;;5008229;28;20060;-87
2022/01/26 11:04:35;;;;;;;93.35;39.60;;;4.10;99.90;;;;;;4963977;28;134454;-86
2022/01/26 11:07:03;;;;;;;92.65;39.28;;;4.20;99.90;;;;;;5012236;28;20083;-86
2022/01/26 11:09:33;;;;;;;95.40;40.03;;;4.20;99.90;;;;;;4987474;28;64631;-86
2022/01/26 11:12:09;;;;;;;91.78;38.40;;;4.30;99.90;;;;;;5021634;28;20470;-86
2022/01/26 11:14:51;;;;;;;85.60;38.67;;;4.20;99.90;;;;;;4972635;28;196745;-86
2022/01/26 11:17:27;;;;;;;90.68;39.10;;;4.20;99.90;;;;;;5041637;28;20152;-86
2022/01/26 11:20:03;;;;;;;94.28;39.17;;;4.30;99.90;;;;;;4966990;28;120759;-85
2022/01/26 11:22:51;;;;;;;89.68;38.42;;;4.30;99.90;;;;;;5002835;28;20056;-86
2022/01/26 11:25:18;;;;;;;85.90;38.10;;;4.40;99.90;;;;;;4991906;28;134085;-84
2022/01/26 11:27:44;;;;;;;92.60;39.38;;;4.40;99.90;;;;;;5021863;28;20049;-83
2022/01/26 11:30:16;;;;;;;92.20;38.30;;;4.40;99.90;;;;;;5019003;28;135645;-85
2022/01/26 11:33:11;;;;;;;90.68;38.83;;;4.40;99.90;;;;;;4983877;28;20050;-84
2022/01/26 11:35:42;;;;;;;94.68;37.97;;;4.40;99.90;;;;;;5019600;28;195358;-84
2022/01/26 11:47:09;;;;;;;94.72;39.67;;;4.50;99.90;;;;;;5035757;28;20075;-86
2022/01/26 11:49:41;;;;;;;88.22;35.65;;;4.50;99.90;;;;;;4956314;28;282482;-86
2022/01/26 11:52:25;;;;;;;87.68;35.35;;;4.50;99.90;;;;;;5015088;28;20474;-86
2022/01/26 11:55:01;;;;;;;82.80;33.95;;;4.50;99.90;;;;;;4960245;28;194469;-86
2022/01/26 11:58:24;;;;;;;;;;;;;;;;;;;;;
2022/01/26 12:04:24;;;;;;;92.03;35.22;;;4.40;99.90;;;;;;4942634;28;292320;-86
2022/01/26 12:07:20;;;;;;;99.30;37.70;;;4.40;99.90;;;;;;4977939;28;20040;-86
2022/01/26 12:10:17;;;;;;;91.13;34.88;;;4.30;99.90;;;;;;4870932;28;2977994;-85
2022/01/26 12:13:12;;;;;;;84.35;33.00;;;4.30;99.90;;;;;;4971220;28;20085;-86
2022/01/26 12:16:07;;;;;;;95.10;36.60;;;4.30;99.90;;;;;;4964622;28;206303;-85
2022/01/26 12:37:39;;;;;;;84.00;30.48;;;4.30;99.90;;;;;;4751193;29;20054;-87
2022/01/26 12:43:26;;;;;;;83.88;33.22;;;4.40;99.90;;;;;;4764927;29;20059;-86
2022/01/26 12:46:10;;;;;;;89.30;35.63;;;4.40;99.90;;;;;;4733980;29;114871;-87
2022/01/26 12:48:55;;;;;;;86.95;31.83;;;4.40;99.90;;;;;;4742261;29;207849;-86
2022/01/26 12:52:10;;;;;;;89.80;35.65;;;4.40;99.90;;;;;;4775812;29;20051;-88
2022/01/26 12:54:47;;;;;;;90.05;32.30;;;4.40;99.90;;;;;;4655934;29;3018711;-87
2022/01/26 12:57:41;;;;;;;76.32;29.63;;;4.40;99.90;;;;;;4761009;29;20074;-88
2022/01/26 13:00:46;;;;;;;97.53;34.17;;;4.30;99.90;;;;;;4784983;29;255064;-88
2022/01/26 13:03:23;;;;;;;86.78;32.22;;;4.30;99.90;;;;;;4841056;29;20052;-88
2022/01/26 13:06:47;;;;;;;88.38;34.28;;;4.30;99.90;;;;;;4511499;29;10003201;-87
2022/01/26 13:09:24;;;;;;;77.22;30.02;;;4.30;99.90;;;;;;4903899;28;121263;-87
2022/01/26 13:12:15;;;;;;;;;;;;;;;;;;;;;
2022/01/26 13:14:56;;;;;;;88.75;33.13;;;4.30;99.90;;;;;;4958961;28;69983;-87
2022/01/26 13:26:02;;;;;;;76.32;29.58;;;4.50;99.90;;;;;;4967854;28;211687;-86
2022/01/26 14:01:43;;;;;;;80.00;32.35;;;4.90;99.90;;;;;;4905857;29;20063;-87
2022/01/26 14:05:17;;;;;;;74.33;33.07;;;4.80;99.90;;;;;;4736689;29;3006310;-86
2022/01/26 14:08:03;;;;;;;80.78;32.50;;;4.90;99.90;;;;;;4890927;29;20050;-84
2022/01/26 14:10:36;;;;;;;73.65;32.25;;;4.90;99.90;;;;;;4928402;28;275302;-86
2022/01/26 14:13:05;;;;;;;72.05;32.53;;;4.90;99.90;;;;;;5046379;28;20045;-86
2022/01/26 14:15:40;;;;;;;75.70;31.42;;;5.00;99.90;;;;;;5027621;28;181676;-86
2022/01/26 14:21:21;;;;;;;69.28;31.27;;;5.00;99.90;;;;;;5026332;28;20064;-87
2022/01/26 14:23:59;;;;;;;71.60;31.13;;;4.90;99.90;;;;;;5004400;28;136249;-87
2022/01/26 14:26:39;;;;;;;71.10;31.20;;;5.00;99.90;;;;;;5048937;28;20052;-89
2022/01/26 14:29:18;;;;;;;73.10;31.40;;;5.00;99.90;;;;;;4998509;28;35350;-87
2022/01/26 14:32:02;;;;;;;72.22;31.10;;;4.90;99.90;;;;;;5017740;28;20045;-86
2022/01/26 14:39:35;;;;;;;69.10;30.42;;;5.00;99.90;;;;;;5044694;28;20056;-87
2022/01/26 14:40:43;;;;;;;78.65;31.55;;;5.00;99.90;;;;;;4986348;28;288799;-88
2022/01/26 14:51:49;;;;;;;73.15;30.58;;;5.00;99.90;;;;;;5001496;28;20041;-86
2022/01/26 15:43:38;;;;;;;69.72;29.48;;;5.20;99.90;;;;;;5023512;28;20044;-85
2022/01/26 16:07:49;;;;;;;71.45;29.63;;;5.20;99.90;;;;;;4997704;28;20053;-85
2022/01/26 16:21:22;;;;;;;70.85;31.65;;;5.20;99.90;;;;;;4994104;28;20123;-87
2022/01/26 16:26:22;;;;;;;72.90;31.13;;;5.20;99.90;;;;;;4995315;28;44502;-85
2022/01/26 16:37:59;;;;;;;66.55;27.15;;;5.20;99.90;;;;;;5006173;28;20053;-86
2022/01/26 17:55:16;;;;;;;67.15;29.02;;;5.20;99.90;;;;;;4874288;29;20085;-86
2022/01/26 18:49:40;;;;;;;47.47;23.20;;;5.60;99.90;;;;;;5038902;28;173950;-68
2022/01/26 18:52:08;;;;;;;53.70;22.58;;;5.60;99.90;;;;;;5074091;22;20053;-71
2022/01/26 18:54:37;;;;;;;46.42;21.90;;;5.60;99.90;;;;;;4962777;28;134424;-72
2022/01/26 18:57:09;;;;;;;47.08;22.27;;;5.70;99.90;;;;;;5016096;28;20767;-72
2022/01/26 18:59:37;;;;;;;46.58;22.15;;;5.70;99.90;;;;;;4969485;28;133154;-71
2022/01/26 19:02:04;;;;;;;46.15;22.38;;;5.70;99.90;;;;;;5008064;28;20065;-72
2022/01/26 19:04:44;;;;;;;45.95;23.35;;;5.70;99.90;;;;;;4947656;28;213790;-72
2022/01/26 19:07:19;;;;;;;46.70;21.73;;;5.70;99.90;;;;;;5027389;28;20077;-72
2022/01/26 19:09:49;;;;;;;46.05;22.20;;;5.70;99.90;;;;;;4978102;28;163724;-71
2022/01/26 19:12:17;;;;;;;43.35;22.30;;;5.70;99.90;;;;;;5016790;28;20058;-71
2022/01/26 19:14:50;;;;;;;48.83;22.17;;;5.70;99.90;;;;;;4961952;28;109116;-72
2022/01/26 19:25:02;;;;;;;51.17;22.65;;;5.80;99.90;;;;;;4986600;28;29110;-72
2022/01/26 19:27:34;;;;;;;43.00;20.40;;;5.80;99.90;;;;;;5017223;28;20053;-70
2022/01/26 19:46:12;;;;;;;38.63;17.67;;;6.00;99.90;;;;;;5020255;28;82612;-71
2022/01/26 19:51:23;;;;;;;41.85;19.48;;;6.00;99.90;;;;;;5000193;28;20057;-71
2022/01/26 19:53:50;;;;;;;42.07;19.80;;;6.10;99.90;;;;;;4951997;28;224621;-71
2022/01/26 19:56:16;;;;;;;42.13;20.73;;;6.10;99.90;;;;;;5002773;28;20050;-71
2022/01/26 19:58:42;;;;;;;43.50;19.60;;;6.10;99.90;;;;;;4975482;28;30225;-71
2022/01/26 20:01:08;;;;;;;40.67;19.58;;;6.10;99.90;;;;;;4985893;28;20057;-71
2022/01/26 20:03:35;;;;;;;40.05;19.80;;;6.10;99.90;;;;;;4984209;28;20379;-71
2022/01/26 20:06:05;;;;;;;46.08;19.67;;;6.10;99.90;;;;;;4970787;28;105288;-71
2022/01/26 20:08:43;;;;;;;41.50;20.52;;;6.10;99.90;;;;;;4970591;28;20038;-71
2022/01/26 20:11:24;;;;;;;41.85;21.27;;;6.10;99.90;;;;;;4992029;28;20323;-71
2022/01/26 20:13:50;;;;;;;47.58;20.98;;;6.10;99.90;;;;;;4964658;28;253977;-71
2022/01/26 20:16:16;;;;;;;49.97;22.60;;;6.10;99.90;;;;;;5002606;28;20056;-71
2022/01/26 20:18:42;;;;;;;52.40;23.40;;;6.10;99.90;;;;;;4939835;28;112154;-71
2022/01/26 20:21:09;;;;;;;46.20;22.92;;;6.10;99.90;;;;;;4972205;28;20062;-71
2022/01/26 20:23:37;;;;;;;46.15;21.92;;;6.10;99.90;;;;;;4983753;28;20262;-71
2022/01/26 20:26:07;;;;;;;50.80;26.95;;;6.10;99.90;;;;;;4977966;28;249030;-71
2022/01/26 20:28:37;;;;;;;52.17;25.67;;;6.00;99.90;;;;;;4984205;28;20049;-71